To NAV CANADA Home Page Login to a new session Search on AWWS site Feedback and Comments Disclaimer Vers la page française équivalente Tips FAQ What's new on the site To the Forecasts and Observations / NOTAM section To "File a Flight Plan" website Publications and other links Update of the User's profile FIC Telephone Numbers My Weather Data Folder Route Weather Data Regional Weather Data Local Weather Data To the Forecasts and Observations / NOTAM section
Request Generated 08/04/2015 at 19:54:44 UTC . Weather information available at that time is displayed.

METAR/TAF

GANDER/GANDER INTL/NL    

METAR CYQX 041900Z 12014KT 20SM FEW035 SCT072 BKN260 26/17 A3001 RMK
CU2AC1CI3 SLP164 DENSITY ALT 1700FT=
METAR CYQX 041800Z 12012G18KT 20SM FEW035 BKN260 26/17 A3002 RMK
CU2CI3 AC TR SLP167 DENSITY ALT 1700FT=
METAR CYQX 041700Z 11014KT 20SM FEW034 BKN260 26/17 A3003 RMK CF2CI3
AC TR SLP169 DENSITY ALT 1700FT=

TAF CYQX 041738Z 0418/0518 11010G20KT P6SM FEW030
BECMG 0422/0424 18010KT
FM050600 17012KT P6SM FEW008 SCT070 TEMPO 0506/0512 BKN008
BECMG 0509/0511 17012G22KT
FM051600 20015G25KT P6SM -SHRA SCT020 BKN030 PROB30 0516/0518 2SM
TSRA BR BKN020CB
RMK NXT FCST BY 050000Z=
Your time UTC time
Weather data provided by Environment Canada and NAV CANADA